createdAt,value
2023-09-03T00:00:30.352Z,21.30
2023-09-03T00:02:56.812Z,21.30
2023-09-03T00:05:23.293Z,21.29
2023-09-03T00:07:52.745Z,21.30
2023-09-03T00:10:19.712Z,21.30
2023-09-03T00:12:46.084Z,21.29
2023-09-03T00:15:13.843Z,21.32
2023-09-03T00:17:40.701Z,21.30
2023-09-03T00:20:07.311Z,21.32
2023-09-03T00:22:33.663Z,21.33
2023-09-03T00:25:00.056Z,21.31
2023-09-03T00:27:27.313Z,21.31
2023-09-03T00:29:54.840Z,21.32
2023-09-03T00:32:21.227Z,21.30
2023-09-03T00:34:47.658Z,21.30
2023-09-03T00:37:16.469Z,21.29
2023-09-03T00:39:42.893Z,21.28
2023-09-03T00:42:09.263Z,21.28
2023-09-03T00:44:35.619Z,21.26
2023-09-03T00:47:02.042Z,21.26
2023-09-03T00:49:28.443Z,21.27
2023-09-03T00:51:55.210Z,21.25
2023-09-03T00:54:22.780Z,21.25
2023-09-03T00:56:49.459Z,21.25
2023-09-03T00:59:15.906Z,21.25
2023-09-03T01:01:43.176Z,21.25
2023-09-03T01:04:11.184Z,21.23
2023-09-03T01:06:37.652Z,21.23
2023-09-03T01:09:04.041Z,21.23
2023-09-03T01:11:36.609Z,21.24
2023-09-03T01:14:05.937Z,21.23
2023-09-03T01:16:33.571Z,21.24
2023-09-03T01:19:00.684Z,21.23
2023-09-03T01:21:27.124Z,21.22
2023-09-03T01:24:11.940Z,21.23
2023-09-03T01:26:57.982Z,21.22
2023-09-03T01:29:24.395Z,21.22
2023-09-03T01:31:50.749Z,21.22
2023-09-03T01:34:17.456Z,21.22
2023-09-03T01:36:43.819Z,21.19
2023-09-03T01:39:10.192Z,21.17
2023-09-03T01:41:37.847Z,21.17
2023-09-03T01:44:06.182Z,21.14
2023-09-03T01:46:44.213Z,21.14
2023-09-03T01:49:20.605Z,21.12
2023-09-03T01:51:53.326Z,21.11
2023-09-03T01:54:29.943Z,21.12
2023-09-03T01:57:02.252Z,21.10
2023-09-03T01:59:55.178Z,21.09
2023-09-03T02:02:21.839Z,21.08
2023-09-03T02:04:48.284Z,21.08
2023-09-03T02:07:14.691Z,21.07
2023-09-03T02:09:41.107Z,21.05
2023-09-03T02:12:07.842Z,21.05
2023-09-03T02:14:34.298Z,21.05
2023-09-03T02:17:01.031Z,21.05
2023-09-03T02:19:27.443Z,21.04
2023-09-03T02:21:53.815Z,21.06
2023-09-03T02:24:20.244Z,21.04
2023-09-03T02:26:47.011Z,21.03
2023-09-03T02:29:13.512Z,21.05
2023-09-03T02:31:39.926Z,21.04
2023-09-03T02:34:06.715Z,21.03
2023-09-03T02:36:35.069Z,21.02
2023-09-03T02:39:01.589Z,21.02
2023-09-03T02:41:28.393Z,21.02
2023-09-03T02:43:55.023Z,21.01
2023-09-03T02:46:22.190Z,20.98
2023-09-03T02:48:48.694Z,20.97
2023-09-03T02:51:15.292Z,20.96
2023-09-03T02:53:44.036Z,20.96
2023-09-03T02:56:10.998Z,20.96
2023-09-03T02:58:39.216Z,20.95
2023-09-03T03:01:09.081Z,20.93
2023-09-03T03:03:35.600Z,20.92
2023-09-03T03:06:02.125Z,20.91
2023-09-03T03:08:28.496Z,20.90
2023-09-03T03:11:05.046Z,20.89
2023-09-03T03:13:32.439Z,20.89
2023-09-03T03:16:04.415Z,20.91
2023-09-03T03:18:31.791Z,20.91
2023-09-03T03:21:06.805Z,20.90
2023-09-03T03:23:33.929Z,20.90
2023-09-03T03:26:00.363Z,20.90
2023-09-03T03:28:26.720Z,20.90
2023-09-03T03:30:53.089Z,20.89
2023-09-03T03:33:19.439Z,20.90
2023-09-03T03:35:45.893Z,20.89
2023-09-03T03:38:12.340Z,20.88
2023-09-03T03:40:38.716Z,20.85
2023-09-03T03:43:05.074Z,20.84
2023-09-03T03:45:33.572Z,20.83
2023-09-03T03:48:00.062Z,20.84
2023-09-03T03:50:26.429Z,20.84
2023-09-03T03:52:52.790Z,20.84
2023-09-03T03:55:19.262Z,20.85
2023-09-03T03:57:45.626Z,20.83
2023-09-03T04:00:12.103Z,20.85
2023-09-03T04:02:38.460Z,20.83
2023-09-03T04:05:04.895Z,20.84
2023-09-03T04:07:31.261Z,20.83
2023-09-03T04:09:57.692Z,20.84
2023-09-03T04:12:24.102Z,20.83
2023-09-03T04:14:50.561Z,20.83
2023-09-03T04:17:16.940Z,20.83
2023-09-03T04:19:48.128Z,20.82
2023-09-03T04:22:14.739Z,20.81
2023-09-03T04:24:41.324Z,20.81
2023-09-03T04:27:07.729Z,20.81
2023-09-03T04:29:34.089Z,20.77
2023-09-03T04:32:00.452Z,20.80
2023-09-03T04:34:27.581Z,20.80
2023-09-03T04:36:53.952Z,20.78
2023-09-03T04:39:20.304Z,20.77
2023-09-03T04:41:46.716Z,20.76
2023-09-03T04:44:13.873Z,20.76
2023-09-03T04:46:40.349Z,20.75
2023-09-03T04:49:06.805Z,20.74
2023-09-03T04:51:33.184Z,20.74
2023-09-03T04:53:59.690Z,20.73
2023-09-03T04:56:26.077Z,20.73
2023-09-03T04:58:52.511Z,20.72
2023-09-03T05:01:19.035Z,20.72
2023-09-03T05:03:45.667Z,20.72
2023-09-03T05:06:13.757Z,20.72
2023-09-03T05:08:40.133Z,20.75
2023-09-03T05:11:13.806Z,20.79
2023-09-03T05:13:40.353Z,20.78
2023-09-03T05:16:06.798Z,20.79
2023-09-03T05:18:33.618Z,20.80
2023-09-03T05:21:00.006Z,20.81
2023-09-03T05:23:26.440Z,20.82
2023-09-03T05:25:52.854Z,20.81
2023-09-03T05:28:19.366Z,20.83
2023-09-03T05:30:49.026Z,20.83
2023-09-03T05:33:17.032Z,20.84
2023-09-03T05:35:43.485Z,20.84
2023-09-03T05:38:09.859Z,20.84
2023-09-03T05:40:36.243Z,20.83
2023-09-03T05:43:02.609Z,20.85
2023-09-03T05:45:28.983Z,20.88
2023-09-03T05:47:55.384Z,20.90
2023-09-03T05:50:21.775Z,20.93
2023-09-03T05:52:48.467Z,20.95
2023-09-03T05:55:14.847Z,20.96
2023-09-03T05:57:41.474Z,20.97
2023-09-03T06:00:08.014Z,20.96
2023-09-03T06:02:34.749Z,20.96
2023-09-03T06:05:01.108Z,20.97
2023-09-03T06:07:27.480Z,20.99
2023-09-03T06:09:54.165Z,21.01
2023-09-03T06:12:20.757Z,21.00
2023-09-03T06:14:47.145Z,21.06
2023-09-03T06:17:13.541Z,21.08
2023-09-03T06:19:39.937Z,21.09
2023-09-03T06:22:06.300Z,21.10
2023-09-03T06:24:32.799Z,21.26
2023-09-03T06:26:59.232Z,20.85
2023-09-03T06:29:26.636Z,20.36
2023-09-03T06:31:53.033Z,20.39
2023-09-03T06:34:21.506Z,20.28
2023-09-03T06:36:47.872Z,20.36
2023-09-03T06:39:14.822Z,20.28
2023-09-03T06:41:41.240Z,20.22
2023-09-03T06:44:08.024Z,20.33
2023-09-03T06:46:34.543Z,20.29
2023-09-03T06:49:00.905Z,20.23
2023-09-03T06:51:27.274Z,20.28
2023-09-03T06:53:53.644Z,20.29
2023-09-03T06:56:20.028Z,20.32
2023-09-03T06:58:46.930Z,20.36
2023-09-03T07:01:13.373Z,20.35
2023-09-03T07:03:39.790Z,20.50
2023-09-03T07:06:06.212Z,20.39
2023-09-03T07:08:32.607Z,20.21
2023-09-03T07:10:59.295Z,20.17
2023-09-03T07:13:25.639Z,20.26
2023-09-03T07:15:52.002Z,20.45
2023-09-03T07:18:18.417Z,20.40
2023-09-03T07:20:44.773Z,20.43
2023-09-03T07:23:12.039Z,20.32
2023-09-03T07:25:40.235Z,20.41
2023-09-03T07:28:06.669Z,20.46
2023-09-03T07:30:33.107Z,20.49
2023-09-03T07:32:59.624Z,20.49
2023-09-03T07:35:26.700Z,20.47
2023-09-03T07:37:53.070Z,20.34
2023-09-03T07:40:21.431Z,20.49
2023-09-03T07:42:47.887Z,20.45
2023-09-03T07:45:14.533Z,20.58
2023-09-03T07:47:40.961Z,20.60
2023-09-03T07:50:07.569Z,20.66
2023-09-03T07:52:34.016Z,20.59
2023-09-03T07:55:00.388Z,20.58
2023-09-03T07:57:28.955Z,20.57
2023-09-03T07:59:55.341Z,20.57
2023-09-03T08:02:21.783Z,20.50
2023-09-03T08:04:48.995Z,20.40
2023-09-03T08:07:15.822Z,20.43
2023-09-03T08:09:42.725Z,20.39
2023-09-03T08:12:09.072Z,20.40
2023-09-03T08:14:35.439Z,20.47
2023-09-03T08:17:01.878Z,20.53
2023-09-03T08:19:28.243Z,20.63
2023-09-03T08:21:54.928Z,20.75
2023-09-03T08:24:21.310Z,20.77
2023-09-03T08:26:48.953Z,20.73
2023-09-03T08:29:15.343Z,20.81
2023-09-03T08:31:41.820Z,20.92
2023-09-03T08:34:08.297Z,20.91
2023-09-03T08:36:34.652Z,20.92
2023-09-03T08:39:03.023Z,20.80
2023-09-03T08:41:29.397Z,20.81
2023-09-03T08:43:58.636Z,20.89
2023-09-03T08:46:25.353Z,21.03
2023-09-03T08:48:51.762Z,21.07
2023-09-03T08:51:18.110Z,21.05
2023-09-03T08:53:44.481Z,21.09
2023-09-03T08:56:10.857Z,21.14
2023-09-03T08:58:37.257Z,21.15
2023-09-03T09:01:03.735Z,21.19
2023-09-03T09:03:30.417Z,21.26
2023-09-03T09:05:56.867Z,21.31
2023-09-03T09:08:23.839Z,21.34
2023-09-03T09:10:51.594Z,21.29
2023-09-03T09:13:19.681Z,21.38
2023-09-03T09:15:46.402Z,21.31
2023-09-03T09:18:12.877Z,21.53
2023-09-03T09:20:42.580Z,21.73
2023-09-03T09:23:09.150Z,21.84
2023-09-03T09:25:36.557Z,21.87
2023-09-03T09:28:12.810Z,21.92
2023-09-03T09:30:52.144Z,22.00
2023-09-03T09:33:19.645Z,22.06
2023-09-03T09:35:46.167Z,22.08
2023-09-03T09:38:12.513Z,22.11
2023-09-03T09:40:38.974Z,22.09
2023-09-03T09:43:07.248Z,22.12
2023-09-03T09:45:33.753Z,22.16
2023-09-03T09:48:07.354Z,22.19
2023-09-03T09:50:34.258Z,22.23
2023-09-03T09:53:01.368Z,22.22
2023-09-03T09:55:31.073Z,22.18
2023-09-03T09:57:57.478Z,22.11
2023-09-03T10:00:33.877Z,22.12
2023-09-03T10:03:00.410Z,22.18
2023-09-03T10:05:26.886Z,22.19
2023-09-03T10:07:56.015Z,22.22
2023-09-03T10:10:22.360Z,22.24
2023-09-03T10:12:48.736Z,22.29
2023-09-03T10:15:15.947Z,22.28
2023-09-03T10:17:42.774Z,22.28
2023-09-03T10:20:12.046Z,22.29
2023-09-03T10:22:40.257Z,22.31
2023-09-03T10:25:16.378Z,22.30
2023-09-03T10:27:45.184Z,22.36
2023-09-03T10:30:12.061Z,22.39
2023-09-03T10:32:38.770Z,22.34
2023-09-03T10:35:11.555Z,22.27
2023-09-03T10:37:41.495Z,22.20
2023-09-03T10:40:17.668Z,22.21
2023-09-03T10:42:44.014Z,22.20
2023-09-03T10:45:12.536Z,22.24
2023-09-03T10:47:57.223Z,22.31
2023-09-03T10:50:46.857Z,22.27
2023-09-03T10:53:31.762Z,22.24
2023-09-03T10:56:11.045Z,22.22
2023-09-03T10:58:52.390Z,22.19
2023-09-03T11:01:22.980Z,22.17
2023-09-03T11:03:53.400Z,22.19
2023-09-03T11:06:19.887Z,22.20
2023-09-03T11:08:46.998Z,22.23
2023-09-03T11:11:19.655Z,22.20
2023-09-03T11:13:49.403Z,22.25
2023-09-03T11:16:15.791Z,22.22
2023-09-03T11:18:47.399Z,22.17
2023-09-03T11:21:13.787Z,22.08
2023-09-03T11:23:40.145Z,22.03
2023-09-03T11:26:13.386Z,21.99
2023-09-03T11:28:39.742Z,22.08
2023-09-03T11:31:06.249Z,22.11
2023-09-03T11:33:32.658Z,22.07
2023-09-03T11:36:01.199Z,21.98
2023-09-03T11:38:27.716Z,21.93
2023-09-03T11:40:56.302Z,21.91
2023-09-03T11:43:22.889Z,21.97
2023-09-03T11:45:49.466Z,21.99
2023-09-03T11:48:16.048Z,22.07
2023-09-03T11:50:42.407Z,22.12
2023-09-03T11:53:10.613Z,22.13
2023-09-03T11:55:38.858Z,22.13
2023-09-03T11:58:05.988Z,22.21
2023-09-03T12:00:32.654Z,22.22
2023-09-03T12:02:59.787Z,22.18
2023-09-03T12:05:26.452Z,22.20
2023-09-03T12:07:52.830Z,22.11
2023-09-03T12:10:22.608Z,22.09
2023-09-03T12:12:48.981Z,22.11
2023-09-03T12:15:21.565Z,22.10
2023-09-03T12:17:47.984Z,22.14
2023-09-03T12:20:33.232Z,22.22
2023-09-03T12:23:14.223Z,22.29
2023-09-03T12:25:41.356Z,22.33
2023-09-03T12:28:08.077Z,22.32
2023-09-03T12:30:53.199Z,22.37
2023-09-03T12:33:20.196Z,22.45
2023-09-03T12:35:47.045Z,22.47
2023-09-03T12:38:13.527Z,22.47
2023-09-03T12:40:40.024Z,22.50
2023-09-03T12:43:06.447Z,22.47
2023-09-03T12:45:32.801Z,22.52
2023-09-03T12:47:59.213Z,22.50
2023-09-03T12:50:25.617Z,22.53
2023-09-03T12:52:51.976Z,22.52
2023-09-03T12:55:19.927Z,22.51
2023-09-03T12:57:47.569Z,22.55
2023-09-03T13:00:13.980Z,22.54
2023-09-03T13:02:40.510Z,22.51
2023-09-03T13:05:07.032Z,22.53
2023-09-03T13:07:33.446Z,22.52
2023-09-03T13:09:59.821Z,22.53
2023-09-03T13:12:26.234Z,22.52
2023-09-03T13:14:52.679Z,22.52
2023-09-03T13:17:19.485Z,22.54
2023-09-03T13:19:45.936Z,22.52
2023-09-03T13:22:12.308Z,22.51
2023-09-03T13:24:38.705Z,22.52
2023-09-03T13:27:05.165Z,22.51
2023-09-03T13:29:31.568Z,22.51
2023-09-03T13:31:57.954Z,22.53
2023-09-03T13:34:24.473Z,22.52
2023-09-03T13:36:50.937Z,22.50
2023-09-03T13:39:17.305Z,22.52
2023-09-03T13:41:43.725Z,22.52
2023-09-03T13:44:10.135Z,22.52
2023-09-03T13:46:36.521Z,22.53
2023-09-03T13:49:02.897Z,22.55
2023-09-03T13:51:29.283Z,22.51
2023-09-03T13:53:57.340Z,22.51
2023-09-03T13:56:23.744Z,22.50
2023-09-03T13:58:50.104Z,22.51
2023-09-03T14:01:16.501Z,22.49
2023-09-03T14:03:42.929Z,22.48
2023-09-03T14:06:10.197Z,22.43
2023-09-03T14:08:37.005Z,22.43
2023-09-03T14:11:03.801Z,22.42
2023-09-03T14:13:30.801Z,22.42
2023-09-03T14:15:57.650Z,22.40
2023-09-03T14:18:25.050Z,22.38
2023-09-03T14:20:51.600Z,22.39
2023-09-03T14:23:18.230Z,22.37
2023-09-03T14:25:44.674Z,22.35
2023-09-03T14:28:11.066Z,22.36
2023-09-03T14:30:37.858Z,22.38
2023-09-03T14:33:04.561Z,22.37
2023-09-03T14:35:30.951Z,22.36
2023-09-03T14:37:57.571Z,22.37
2023-09-03T14:40:24.211Z,22.22
2023-09-03T14:42:50.594Z,22.15
2023-09-03T14:45:16.948Z,22.16
2023-09-03T14:47:43.469Z,22.19
2023-09-03T14:50:10.289Z,22.08
2023-09-03T14:52:36.659Z,22.12
2023-09-03T14:55:03.900Z,22.06
2023-09-03T14:57:30.259Z,22.04
2023-09-03T14:59:56.615Z,22.06
2023-09-03T15:02:22.968Z,22.06
2023-09-03T15:04:49.319Z,22.04
2023-09-03T15:07:15.697Z,22.07
2023-09-03T15:09:42.061Z,21.98
2023-09-03T15:12:08.532Z,21.93
2023-09-03T15:14:34.889Z,22.05
2023-09-03T15:17:01.240Z,22.00
2023-09-03T15:19:27.649Z,22.01
2023-09-03T15:21:54.046Z,22.03
2023-09-03T15:24:20.418Z,22.07
2023-09-03T15:26:47.162Z,22.04
2023-09-03T15:29:13.629Z,22.02
2023-09-03T15:31:40.068Z,21.90
2023-09-03T15:34:09.809Z,21.90
2023-09-03T15:36:36.217Z,21.59
2023-09-03T15:39:02.580Z,21.66
2023-09-03T15:41:28.938Z,21.79
2023-09-03T15:44:02.295Z,21.84
2023-09-03T15:46:28.985Z,21.82
2023-09-03T15:48:55.407Z,21.74
2023-09-03T15:51:21.856Z,21.57
2023-09-03T15:53:48.365Z,21.69
2023-09-03T15:56:14.833Z,21.74
2023-09-03T15:58:41.176Z,21.56
2023-09-03T16:01:07.632Z,21.46
2023-09-03T16:03:34.564Z,21.52
2023-09-03T16:06:01.011Z,21.41
2023-09-03T16:08:27.493Z,21.67
2023-09-03T16:10:53.866Z,21.58
2023-09-03T16:13:20.307Z,21.54
2023-09-03T16:15:46.918Z,21.56
2023-09-03T16:18:14.375Z,21.71
2023-09-03T16:20:41.022Z,21.77
2023-09-03T16:23:07.612Z,21.70
2023-09-03T16:25:34.009Z,21.57
2023-09-03T16:28:00.446Z,21.63
2023-09-03T16:30:26.809Z,21.59
2023-09-03T16:32:53.501Z,21.57
2023-09-03T16:35:20.700Z,21.65
2023-09-03T16:37:47.112Z,21.64
2023-09-03T16:40:13.863Z,21.52
2023-09-03T16:42:40.356Z,21.36
2023-09-03T16:45:06.947Z,21.30
2023-09-03T16:47:33.343Z,21.31
2023-09-03T16:50:00.449Z,21.29
2023-09-03T16:52:28.389Z,21.27
2023-09-03T16:54:54.927Z,21.34
2023-09-03T16:57:22.417Z,21.33
2023-09-03T16:59:48.780Z,21.47
2023-09-03T17:02:15.189Z,21.54
2023-09-03T17:04:42.533Z,21.58
2023-09-03T17:07:09.411Z,21.60
2023-09-03T17:09:35.839Z,21.61
2023-09-03T17:12:02.816Z,21.62
2023-09-03T17:14:29.508Z,21.64
2023-09-03T17:16:56.038Z,21.63
2023-09-03T17:19:22.451Z,21.61
2023-09-03T17:21:48.850Z,21.63
2023-09-03T17:24:15.351Z,21.63
2023-09-03T17:26:41.728Z,21.64
2023-09-03T17:29:08.146Z,21.60
2023-09-03T17:31:34.964Z,21.63
2023-09-03T17:34:01.641Z,21.63
2023-09-03T17:36:28.234Z,21.63
2023-09-03T17:38:54.619Z,21.62
2023-09-03T17:41:21.029Z,21.64
2023-09-03T17:43:47.478Z,21.63
2023-09-03T17:46:13.918Z,21.63
2023-09-03T17:48:40.314Z,21.63
2023-09-03T17:51:06.685Z,21.63
2023-09-03T17:53:33.801Z,21.62
2023-09-03T17:56:00.255Z,21.62
2023-09-03T17:58:29.500Z,21.62
2023-09-03T18:00:57.594Z,21.60
2023-09-03T18:03:24.083Z,21.61
2023-09-03T18:05:50.790Z,21.61
2023-09-03T18:08:17.202Z,21.60
2023-09-03T18:10:43.564Z,21.60
2023-09-03T18:13:10.164Z,21.60
2023-09-03T18:15:36.605Z,21.60
2023-09-03T18:18:03.086Z,21.60
2023-09-03T18:20:29.542Z,21.59
2023-09-03T18:22:55.898Z,21.58
2023-09-03T18:25:25.097Z,21.56
2023-09-03T18:27:51.694Z,21.56
2023-09-03T18:30:18.085Z,21.56
2023-09-03T18:32:44.504Z,21.55
2023-09-03T18:35:11.168Z,21.54
2023-09-03T18:37:37.755Z,21.54
2023-09-03T18:40:04.915Z,21.54
2023-09-03T18:42:31.304Z,21.53
2023-09-03T18:44:57.677Z,21.53
2023-09-03T18:47:24.071Z,21.53
2023-09-03T18:49:50.443Z,21.53
2023-09-03T18:52:16.812Z,21.52
2023-09-03T18:54:43.353Z,21.51
2023-09-03T18:57:09.746Z,21.51
2023-09-03T18:59:36.456Z,21.51
2023-09-03T19:02:02.846Z,21.50
2023-09-03T19:04:29.289Z,21.51
2023-09-03T19:06:55.662Z,21.52
2023-09-03T19:09:22.017Z,21.51
2023-09-03T19:11:48.407Z,21.50
2023-09-03T19:14:14.820Z,21.50
2023-09-03T19:16:41.296Z,21.50
2023-09-03T19:19:07.765Z,21.50
2023-09-03T19:21:34.810Z,21.49
2023-09-03T19:24:04.608Z,21.50
2023-09-03T19:26:30.986Z,21.48
2023-09-03T19:28:57.790Z,21.48
2023-09-03T19:31:24.338Z,21.48
2023-09-03T19:33:50.947Z,21.42
2023-09-03T19:36:17.361Z,21.45
2023-09-03T19:38:43.725Z,21.46
2023-09-03T19:41:10.184Z,21.47
2023-09-03T19:43:36.618Z,21.44
2023-09-03T19:46:03.106Z,21.43
2023-09-03T19:48:34.607Z,21.44
2023-09-03T19:51:01.192Z,21.42
2023-09-03T19:53:29.213Z,21.36
2023-09-03T19:55:55.581Z,21.33
2023-09-03T19:58:22.189Z,21.36
2023-09-03T20:00:50.401Z,21.38
2023-09-03T20:03:16.946Z,21.40
2023-09-03T20:05:43.491Z,21.41
2023-09-03T20:08:09.916Z,21.41
2023-09-03T20:10:36.933Z,21.42
2023-09-03T20:13:05.290Z,21.41
2023-09-03T20:15:32.348Z,21.41
2023-09-03T20:18:00.273Z,21.41
2023-09-03T20:20:27.748Z,21.42
2023-09-03T20:22:57.746Z,21.40
2023-09-03T20:25:24.134Z,21.40
2023-09-03T20:27:50.501Z,21.39
2023-09-03T20:30:16.861Z,21.38
2023-09-03T20:32:43.268Z,21.38
2023-09-03T20:35:09.646Z,21.38
2023-09-03T20:37:39.780Z,21.38
2023-09-03T20:40:07.942Z,21.38
2023-09-03T20:42:34.519Z,21.37
2023-09-03T20:45:00.875Z,21.36
2023-09-03T20:47:27.320Z,21.36
2023-09-03T20:49:53.821Z,21.35
2023-09-03T20:52:20.185Z,21.35
2023-09-03T20:54:46.542Z,21.34
2023-09-03T20:57:12.896Z,21.35
2023-09-03T20:59:39.267Z,21.37
2023-09-03T21:02:05.630Z,21.37
2023-09-03T21:04:32.318Z,21.37
2023-09-03T21:06:58.675Z,21.37
2023-09-03T21:09:25.081Z,21.38
2023-09-03T21:11:51.449Z,21.37
2023-09-03T21:14:17.880Z,21.37
2023-09-03T21:16:44.305Z,21.37
2023-09-03T21:19:10.682Z,21.36
2023-09-03T21:21:38.251Z,21.36
2023-09-03T21:24:04.768Z,21.35
2023-09-03T21:26:31.179Z,21.34
2023-09-03T21:28:57.544Z,21.33
2023-09-03T21:31:24.005Z,21.33
2023-09-03T21:33:50.633Z,21.34
2023-09-03T21:36:20.433Z,21.35
2023-09-03T21:38:47.092Z,21.33
2023-09-03T21:41:13.475Z,21.35
2023-09-03T21:43:46.241Z,21.35
2023-09-03T21:46:12.681Z,21.34
2023-09-03T21:48:39.107Z,21.33
2023-09-03T21:51:17.964Z,21.34
2023-09-03T21:53:45.868Z,21.33
2023-09-03T21:56:12.769Z,21.33
2023-09-03T21:58:39.141Z,21.33
2023-09-03T22:01:05.593Z,21.33
2023-09-03T22:03:32.132Z,21.32
2023-09-03T22:05:58.622Z,21.32
2023-09-03T22:08:25.176Z,21.32
2023-09-03T22:10:51.729Z,21.32
2023-09-03T22:13:18.140Z,21.31
2023-09-03T22:15:44.520Z,21.30
2023-09-03T22:18:10.945Z,21.31
2023-09-03T22:20:37.393Z,21.31
2023-09-03T22:23:03.739Z,21.30
2023-09-03T22:25:30.106Z,21.28
2023-09-03T22:27:56.478Z,21.27
2023-09-03T22:30:22.856Z,21.27
2023-09-03T22:32:49.279Z,21.26
2023-09-03T22:35:15.727Z,21.25
2023-09-03T22:37:42.088Z,21.24
2023-09-03T22:40:08.801Z,21.25
2023-09-03T22:42:35.196Z,21.24
2023-09-03T22:45:01.591Z,21.24
2023-09-03T22:47:29.634Z,21.23
2023-09-03T22:49:56.301Z,21.23
2023-09-03T22:52:22.685Z,21.22
2023-09-03T22:54:49.053Z,21.22
2023-09-03T22:57:16.343Z,21.21
2023-09-03T22:59:42.701Z,21.22
2023-09-03T23:02:09.104Z,21.19
2023-09-03T23:04:35.504Z,21.23
2023-09-03T23:07:01.881Z,21.24
2023-09-03T23:09:28.461Z,21.23
2023-09-03T23:11:55.248Z,21.24
2023-09-03T23:14:21.818Z,21.25
2023-09-03T23:16:48.651Z,21.24
2023-09-03T23:19:15.040Z,21.23
2023-09-03T23:21:41.434Z,21.23
2023-09-03T23:24:07.798Z,21.22
2023-09-03T23:26:34.254Z,21.22
2023-09-03T23:29:00.600Z,21.21
2023-09-03T23:31:26.972Z,21.18
2023-09-03T23:33:53.331Z,21.18
2023-09-03T23:36:19.725Z,21.17
2023-09-03T23:38:46.139Z,21.18
2023-09-03T23:41:13.492Z,21.17
2023-09-03T23:43:39.931Z,21.16
2023-09-03T23:46:06.636Z,21.18
2023-09-03T23:48:33.087Z,21.17
2023-09-03T23:50:59.488Z,21.16
2023-09-03T23:53:26.681Z,21.16
2023-09-03T23:55:53.436Z,21.16
2023-09-03T23:58:19.816Z,21.15
